Time;durP1;ratioP1;P1;durP2;ratioP2;P2;SDS_P1;SDS_P2;PMS_P1;PMS_P2;Temp;Humidity;BMP_temperature;BMP_pressure;BME280_temperature;BME280_humidity;BME280_pressure;Samples;Min_cycle;Max_cycle;Signal;HPM_P1;HPM_P2
2020/12/21 00:01:46;;;;;;;47.20;32.73;;;10.00;88.60;;;;;;5034875;28;20021;-78
2020/12/21 00:04:12;;;;;;;44.33;33.42;;;10.00;88.70;;;;;;5034908;28;20025;-79
2020/12/21 00:06:38;;;;;;;41.70;30.17;;;10.00;88.70;;;;;;5034724;28;20071;-71
2020/12/21 00:09:04;;;;;;;45.00;32.05;;;10.00;88.80;;;;;;5034667;28;20025;-69
2020/12/21 00:11:38;;;;;;;49.00;34.97;;;10.00;88.80;;;;;;5034793;28;20061;-80
2020/12/21 00:14:05;;;;;;;48.00;35.27;;;10.00;88.70;;;;;;5034448;28;20021;-74
2020/12/21 00:16:38;;;;;;;50.53;34.50;;;10.00;88.70;;;;;;5034278;28;20487;-80
2020/12/21 00:19:04;;;;;;;47.38;34.88;;;10.00;88.60;;;;;;5034323;28;20018;-79
2020/12/21 00:21:30;;;;;;;53.73;37.83;;;10.00;88.50;;;;;;5034618;28;20109;-70
2020/12/21 00:23:55;;;;;;;53.28;38.85;;;10.00;88.50;;;;;;5034634;28;20171;-74
2020/12/21 00:26:21;;;;;;;49.92;36.33;;;10.00;88.50;;;;;;5034388;28;20025;-79
2020/12/21 00:28:47;;;;;;;52.17;36.73;;;10.00;88.50;;;;;;5034326;28;20040;-69
2020/12/21 00:31:21;;;;;;;50.40;37.00;;;10.00;88.60;;;;;;5034077;28;20027;-79
2020/12/21 00:33:46;;;;;;;55.65;39.20;;;10.00;88.70;;;;;;5033387;28;20017;-69
2020/12/21 00:36:12;;;;;;;52.35;38.22;;;10.00;89.00;;;;;;5034007;28;20525;-69
2020/12/21 00:38:38;;;;;;;57.78;41.53;;;10.00;89.10;;;;;;5034215;28;20026;-78
2020/12/21 00:41:14;;;;;;;55.47;41.42;;;9.90;89.00;;;;;;5034105;28;20026;-69
2020/12/21 00:43:40;;;;;;;56.80;39.60;;;10.00;89.20;;;;;;5033707;28;20029;-79
2020/12/21 00:46:10;;;;;;;52.28;39.80;;;9.90;89.20;;;;;;5033934;28;20053;-69
2020/12/21 00:48:36;;;;;;;53.05;37.40;;;9.90;89.30;;;;;;5033915;28;20028;-77
2020/12/21 00:51:02;;;;;;;48.03;34.35;;;9.90;89.40;;;;;;5034199;28;20033;-69
2020/12/21 00:53:28;;;;;;;46.53;33.47;;;10.00;89.50;;;;;;5033881;28;20030;-69
2020/12/21 00:55:54;;;;;;;43.35;33.13;;;9.90;89.30;;;;;;5033746;28;20463;-79
2020/12/21 00:58:19;;;;;;;45.47;32.95;;;9.90;89.30;;;;;;5033895;28;20032;-69
2020/12/21 01:00:45;;;;;;;45.33;31.50;;;9.90;89.30;;;;;;5033740;28;20022;-78
2020/12/21 01:03:11;;;;;;;43.67;30.83;;;9.90;89.40;;;;;;5033665;28;20132;-77
2020/12/21 01:05:37;;;;;;;41.53;30.10;;;9.90;89.30;;;;;;5033420;28;20028;-78
2020/12/21 01:08:02;;;;;;;43.05;29.80;;;10.00;89.40;;;;;;5033356;28;20033;-70
2020/12/21 01:10:28;;;;;;;43.03;29.53;;;9.90;89.30;;;;;;5033188;28;20032;-73
2020/12/21 01:12:53;;;;;;;45.37;31.10;;;10.00;89.30;;;;;;5033321;28;20774;-68
2020/12/21 01:15:19;;;;;;;43.88;30.88;;;9.90;89.10;;;;;;5033227;28;20064;-71
2020/12/21 01:17:45;;;;;;;41.60;29.13;;;10.00;89.20;;;;;;5033399;28;20033;-76
2020/12/21 01:20:12;;;;;;;43.57;31.00;;;9.90;89.10;;;;;;5033216;28;20104;-78
2020/12/21 01:22:39;;;;;;;45.53;29.87;;;9.90;89.10;;;;;;5033447;28;20095;-70
2020/12/21 01:25:07;;;;;;;41.23;28.80;;;9.90;89.20;;;;;;5032908;28;20029;-78
2020/12/21 01:27:32;;;;;;;43.83;28.17;;;9.90;89.20;;;;;;5032995;28;20037;-76
2020/12/21 01:29:58;;;;;;;39.83;28.23;;;9.90;89.20;;;;;;5033316;28;20022;-68
2020/12/21 01:32:24;;;;;;;44.07;29.00;;;9.90;89.20;;;;;;5033213;28;20029;-77
2020/12/21 01:34:49;;;;;;;40.90;28.85;;;10.00;89.20;;;;;;5033246;28;20466;-68
2020/12/21 01:37:15;;;;;;;39.88;28.02;;;10.00;89.00;;;;;;5032661;28;20053;-69
2020/12/21 01:39:48;;;;;;;43.35;28.42;;;10.00;88.90;;;;;;5032932;28;20549;-78
2020/12/21 01:42:17;;;;;;;39.28;27.77;;;10.00;89.00;;;;;;5033185;28;20037;-67
2020/12/21 01:44:49;;;;;;;39.33;27.92;;;9.90;88.90;;;;;;5032656;28;20025;-68
2020/12/21 01:47:16;;;;;;;44.15;28.15;;;9.90;88.90;;;;;;5032721;28;20052;-74
2020/12/21 01:49:42;;;;;;;41.20;27.85;;;9.90;89.10;;;;;;5032654;28;20439;-68
2020/12/21 01:52:08;;;;;;;39.78;26.65;;;9.90;89.20;;;;;;5032532;28;20052;-72
2020/12/21 01:54:35;;;;;;;41.10;27.67;;;10.00;89.20;;;;;;5032795;28;20070;-78
2020/12/21 01:57:01;;;;;;;40.58;29.05;;;9.90;89.20;;;;;;5032507;28;20037;-79
2020/12/21 01:59:27;;;;;;;38.40;28.05;;;9.90;89.20;;;;;;5029781;28;20517;-68
2020/12/21 02:01:53;;;;;;;49.33;28.10;;;10.00;89.10;;;;;;5029732;28;20037;-68
2020/12/21 02:04:19;;;;;;;42.53;29.17;;;9.90;89.10;;;;;;5030350;28;20385;-69
2020/12/21 02:06:46;;;;;;;41.58;29.25;;;9.90;89.00;;;;;;5032188;28;20087;-69
2020/12/21 02:09:12;;;;;;;46.20;29.92;;;10.00;89.10;;;;;;5032638;28;20108;-78
2020/12/21 02:11:40;;;;;;;40.58;29.77;;;10.00;89.00;;;;;;5032782;28;20526;-77
2020/12/21 02:14:05;;;;;;;46.33;29.35;;;10.00;88.90;;;;;;5032296;28;20029;-78
2020/12/21 02:16:31;;;;;;;47.53;30.87;;;9.90;88.90;;;;;;5032306;28;20091;-68
2020/12/21 02:18:57;;;;;;;44.90;32.37;;;9.90;89.00;;;;;;5032517;28;20030;-70
2020/12/21 02:21:22;;;;;;;54.92;31.85;;;9.90;89.10;;;;;;5032359;28;20030;-68
2020/12/21 02:23:48;;;;;;;46.93;32.30;;;9.90;89.00;;;;;;5032516;28;20029;-78
2020/12/21 02:26:13;;;;;;;46.67;33.42;;;9.90;89.00;;;;;;5032358;28;20026;-68
2020/12/21 02:28:39;;;;;;;45.60;33.30;;;9.90;89.00;;;;;;5032058;28;20086;-68
2020/12/21 02:31:05;;;;;;;44.55;32.13;;;10.00;89.10;;;;;;5032514;28;20064;-78
2020/12/21 02:33:30;;;;;;;49.95;35.88;;;9.90;89.50;;;;;;5032288;28;20036;-78
2020/12/21 02:35:56;;;;;;;53.57;34.30;;;10.00;88.90;;;;;;5031967;28;20042;-68
2020/12/21 02:38:22;;;;;;;49.33;34.38;;;10.00;88.90;;;;;;5032212;28;20053;-68
2020/12/21 02:40:48;;;;;;;47.67;33.83;;;10.00;88.90;;;;;;5032368;28;20026;-78
2020/12/21 02:43:14;;;;;;;47.85;34.47;;;10.00;88.70;;;;;;5032166;28;20036;-79
2020/12/21 02:45:41;;;;;;;51.55;35.85;;;10.00;88.80;;;;;;5032263;28;20037;-78
2020/12/21 02:48:07;;;;;;;63.20;42.43;;;10.00;88.90;;;;;;5032235;28;20030;-69
2020/12/21 02:50:33;;;;;;;52.35;38.05;;;10.00;88.90;;;;;;5032076;28;20017;-78
2020/12/21 02:52:59;;;;;;;61.00;43.87;;;10.00;88.90;;;;;;5032380;28;20057;-77
2020/12/21 02:55:24;;;;;;;57.72;42.63;;;9.90;88.90;;;;;;5031871;28;20454;-73
2020/12/21 02:57:50;;;;;;;66.18;45.75;;;9.90;89.10;;;;;;5034394;28;20040;-78
2020/12/21 03:00:16;;;;;;;70.68;50.65;;;9.90;89.30;;;;;;5035956;28;20025;-69
2020/12/21 03:02:42;;;;;;;74.13;51.80;;;9.90;89.20;;;;;;5035807;28;20026;-77
2020/12/21 03:05:08;;;;;;;72.32;50.60;;;9.90;89.20;;;;;;5035686;28;20045;-76
2020/12/21 03:07:34;;;;;;;70.85;50.75;;;9.90;89.30;;;;;;5035736;28;20022;-77
2020/12/21 03:10:00;;;;;;;75.05;55.20;;;9.90;89.40;;;;;;5035800;28;20063;-68
2020/12/21 03:12:26;;;;;;;77.32;56.67;;;9.90;89.50;;;;;;5035708;28;20053;-76
2020/12/21 03:14:51;;;;;;;80.20;58.67;;;9.90;89.50;;;;;;5035661;28;20038;-79
2020/12/21 03:17:17;;;;;;;86.38;62.05;;;9.90;89.30;;;;;;5035540;28;20041;-79
2020/12/21 03:19:43;;;;;;;81.82;59.08;;;9.90;89.20;;;;;;5035237;28;20108;-78
2020/12/21 03:22:09;;;;;;;80.82;58.80;;;9.90;89.20;;;;;;5035428;28;20036;-78
2020/12/21 03:24:35;;;;;;;79.68;57.38;;;9.90;89.30;;;;;;5035328;28;20026;-68
2020/12/21 03:27:00;;;;;;;81.30;59.20;;;9.90;89.30;;;;;;5035233;28;20485;-70
2020/12/21 03:29:26;;;;;;;85.40;60.03;;;9.90;89.40;;;;;;5034938;28;20028;-67
2020/12/21 03:31:51;;;;;;;84.07;61.13;;;9.90;89.60;;;;;;5035337;28;20429;-78
2020/12/21 03:34:17;;;;;;;74.00;57.00;;;9.90;89.70;;;;;;5035185;28;20427;-69
2020/12/21 03:36:44;;;;;;;84.63;60.85;;;9.80;89.80;;;;;;5034062;28;20057;-77
2020/12/21 03:39:10;;;;;;;79.55;56.65;;;9.80;90.00;;;;;;5034076;28;20066;-78
2020/12/21 03:41:36;;;;;;;77.00;56.55;;;9.80;90.10;;;;;;5034064;28;20470;-69
2020/12/21 03:44:02;;;;;;;70.30;53.60;;;9.80;90.10;;;;;;5034139;28;20021;-77
2020/12/21 03:46:29;;;;;;;66.50;48.08;;;9.80;90.30;;;;;;5034091;28;20478;-78
2020/12/21 03:48:55;;;;;;;68.70;46.45;;;9.80;90.30;;;;;;5033669;28;20445;-67
2020/12/21 03:51:21;;;;;;;67.40;46.50;;;9.90;90.20;;;;;;5034062;28;20022;-69
2020/12/21 03:53:46;;;;;;;67.38;45.42;;;9.80;90.20;;;;;;5033879;28;20025;-77
2020/12/21 03:56:12;;;;;;;65.27;43.73;;;9.90;90.20;;;;;;5033835;28;20018;-78
2020/12/21 03:58:38;;;;;;;70.83;46.73;;;9.80;90.20;;;;;;5033927;28;20550;-78
2020/12/21 04:01:03;;;;;;;74.53;47.37;;;9.80;90.20;;;;;;5033751;28;20022;-68
2020/12/21 04:03:30;;;;;;;70.28;47.30;;;9.90;90.20;;;;;;5033531;28;20092;-68
2020/12/21 04:05:56;;;;;;;72.87;47.00;;;9.90;90.20;;;;;;5033563;28;20051;-68
2020/12/21 04:08:22;;;;;;;69.15;47.65;;;9.80;90.20;;;;;;5033464;28;20026;-67
2020/12/21 04:10:48;;;;;;;68.72;47.67;;;9.90;90.20;;;;;;5033687;28;20072;-68
2020/12/21 04:13:14;;;;;;;66.77;48.27;;;9.90;90.20;;;;;;5033730;28;20073;-68
2020/12/21 04:15:40;;;;;;;67.53;47.80;;;9.80;90.20;;;;;;5033159;28;20025;-78
2020/12/21 04:18:06;;;;;;;77.83;50.87;;;9.90;90.20;;;;;;5033037;28;20714;-78
2020/12/21 04:20:34;;;;;;;70.22;48.63;;;9.90;90.20;;;;;;5033292;28;20022;-76
2020/12/21 04:23:02;;;;;;;68.93;51.33;;;9.90;90.10;;;;;;5033396;28;20022;-78
2020/12/21 04:25:29;;;;;;;76.20;55.80;;;9.90;90.10;;;;;;5033527;28;20485;-77
2020/12/21 04:27:55;;;;;;;75.80;56.58;;;9.90;90.10;;;;;;5033610;28;20056;-78
2020/12/21 04:30:21;;;;;;;79.53;62.35;;;9.90;90.10;;;;;;5031915;28;20486;-78
2020/12/21 04:32:46;;;;;;;85.17;63.57;;;9.90;90.00;;;;;;5033313;28;20108;-79
2020/12/21 04:35:12;;;;;;;91.43;66.60;;;9.80;90.00;;;;;;5033145;28;20021;-69
2020/12/21 04:37:38;;;;;;;86.70;64.27;;;9.80;90.10;;;;;;5009566;28;694375;-68
2020/12/21 04:40:04;;;;;;;90.63;66.78;;;9.80;90.30;;;;;;5033938;28;20104;-78
2020/12/21 04:42:29;;;;;;;88.43;63.83;;;9.80;90.30;;;;;;5033816;28;20025;-68
2020/12/21 04:44:55;;;;;;;92.00;65.88;;;9.80;90.30;;;;;;5033889;28;20029;-72
2020/12/21 04:47:21;;;;;;;89.73;64.93;;;9.80;90.30;;;;;;5033907;28;20026;-78
2020/12/21 04:49:47;;;;;;;89.80;62.53;;;9.90;90.30;;;;;;5033889;28;20021;-69
2020/12/21 04:52:14;;;;;;;83.57;62.13;;;9.80;90.30;;;;;;5033698;28;20018;-78
2020/12/21 04:54:40;;;;;;;89.40;61.53;;;9.80;90.30;;;;;;5033598;28;20117;-71
2020/12/21 04:57:07;;;;;;;91.18;62.78;;;9.80;90.30;;;;;;5033606;28;20616;-68
2020/12/21 04:59:33;;;;;;;85.40;62.93;;;9.80;90.30;;;;;;5033838;28;20026;-79
2020/12/21 05:02:02;;;;;;;86.28;63.17;;;9.80;90.30;;;;;;5033589;28;20390;-79
2020/12/21 05:04:28;;;;;;;85.78;60.63;;;9.80;90.30;;;;;;5033589;28;20026;-79
2020/12/21 05:06:56;;;;;;;87.50;63.00;;;9.80;90.30;;;;;;5033247;28;20385;-69
2020/12/21 05:09:23;;;;;;;87.40;60.27;;;9.80;90.30;;;;;;5033444;28;20132;-68
2020/12/21 05:11:53;;;;;;;86.53;64.00;;;9.80;90.30;;;;;;5033538;28;20052;-68
2020/12/21 05:14:28;;;;;;;90.20;64.13;;;9.80;90.40;;;;;;5033454;28;20022;-68
2020/12/21 05:16:54;;;;;;;90.95;63.90;;;9.80;90.30;;;;;;5033325;28;20493;-78
2020/12/21 05:19:23;;;;;;;87.23;64.73;;;9.90;90.30;;;;;;5032873;28;20029;-78
2020/12/21 05:21:54;;;;;;;88.37;64.13;;;9.80;90.20;;;;;;5033438;28;20079;-71
2020/12/21 05:24:22;;;;;;;83.07;63.40;;;9.90;90.30;;;;;;5033186;28;20043;-69
2020/12/21 05:26:47;;;;;;;90.17;65.57;;;9.80;90.20;;;;;;5032719;28;20129;-78
2020/12/21 05:29:27;;;;;;;91.80;67.78;;;9.90;90.20;;;;;;5033167;28;20065;-73
2020/12/21 05:31:52;;;;;;;91.88;67.35;;;9.80;90.20;;;;;;5033050;28;20095;-68
2020/12/21 05:34:28;;;;;;;96.50;68.97;;;9.80;90.20;;;;;;5032939;28;20065;-68
2020/12/21 05:36:53;;;;;;;100.83;72.57;;;9.80;90.30;;;;;;5032706;28;20056;-76
2020/12/21 05:39:20;;;;;;;100.25;70.38;;;9.80;90.30;;;;;;5032990;28;20025;-78
2020/12/21 05:41:46;;;;;;;96.00;70.20;;;9.70;90.40;;;;;;5033315;28;20021;-68
2020/12/21 05:44:12;;;;;;;99.57;74.07;;;9.80;90.40;;;;;;5031832;28;20494;-72
2020/12/21 05:46:37;;;;;;;100.10;73.63;;;9.70;90.50;;;;;;5032517;28;20028;-68
2020/12/21 05:49:03;;;;;;;104.40;74.65;;;9.80;90.50;;;;;;5032779;28;20021;-68
2020/12/21 05:51:37;;;;;;;93.80;70.68;;;9.80;90.50;;;;;;5032581;28;20025;-68
2020/12/21 05:54:05;;;;;;;92.28;67.72;;;9.80;90.50;;;;;;5032902;28;20018;-68
2020/12/21 05:56:35;;;;;;;92.20;64.90;;;9.80;90.50;;;;;;5033117;28;20040;-68
2020/12/21 05:59:02;;;;;;;89.55;63.53;;;9.80;90.50;;;;;;5032916;28;20057;-68
2020/12/21 06:01:28;;;;;;;91.65;65.10;;;9.80;90.40;;;;;;5033249;28;20021;-67
2020/12/21 06:03:54;;;;;;;84.68;59.83;;;9.80;90.40;;;;;;5032942;28;20022;-68
2020/12/21 06:06:21;;;;;;;83.00;55.72;;;9.80;90.40;;;;;;5032633;28;20030;-68
2020/12/21 06:08:55;;;;;;;74.73;54.87;;;9.80;90.40;;;;;;5032682;28;20033;-68
2020/12/21 06:11:29;;;;;;;75.75;51.95;;;9.80;90.40;;;;;;5032658;28;20017;-68
2020/12/21 06:14:06;;;;;;;72.43;50.78;;;9.90;90.40;;;;;;5032689;28;20094;-68
2020/12/21 06:16:36;;;;;;;77.00;52.37;;;9.80;90.30;;;;;;5032697;28;20033;-68
2020/12/21 06:19:22;;;;;;;72.45;50.78;;;9.80;90.30;;;;;;5032901;28;20036;-67
2020/12/21 06:21:49;;;;;;;73.25;50.75;;;9.90;90.40;;;;;;5032904;28;20104;-67
2020/12/21 06:24:22;;;;;;;74.22;51.50;;;9.80;90.30;;;;;;5032898;28;20021;-68
2020/12/21 06:26:49;;;;;;;79.13;50.13;;;9.80;90.30;;;;;;5032734;28;20021;-68
2020/12/21 06:29:19;;;;;;;69.72;48.28;;;9.90;90.40;;;;;;5032826;28;20025;-67
2020/12/21 06:31:47;;;;;;;74.47;50.53;;;9.90;90.40;;;;;;5033689;28;20026;-68
2020/12/21 06:34:18;;;;;;;68.73;47.97;;;9.90;90.40;;;;;;5036896;28;20355;-67
2020/12/21 06:36:45;;;;;;;72.70;49.40;;;9.90;90.30;;;;;;5036178;28;20042;-68
2020/12/21 06:39:24;;;;;;;70.97;47.60;;;9.90;90.30;;;;;;5036356;28;20044;-68
2020/12/21 06:42:21;;;;;;;77.75;54.03;;;9.90;90.30;;;;;;5036588;28;20032;-67
2020/12/21 06:44:46;;;;;;;79.45;53.72;;;9.90;90.30;;;;;;5036522;28;20029;-67
2020/12/21 06:47:12;;;;;;;79.87;55.93;;;9.90;90.30;;;;;;5035895;28;20486;-69
2020/12/21 06:49:41;;;;;;;83.95;61.22;;;9.90;90.30;;;;;;5036512;28;20025;-68
2020/12/21 06:52:07;;;;;;;91.32;69.32;;;9.90;90.20;;;;;;5036521;28;20072;-68
2020/12/21 06:54:33;;;;;;;87.82;61.35;;;9.80;90.30;;;;;;5036463;28;20030;-68
2020/12/21 06:56:58;;;;;;;84.50;60.38;;;9.80;90.30;;;;;;5036172;28;20040;-67
2020/12/21 06:59:26;;;;;;;77.90;54.95;;;9.80;90.30;;;;;;5036110;28;20034;-68
2020/12/21 07:01:53;;;;;;;79.18;56.50;;;9.80;90.40;;;;;;5036071;28;20025;-68
2020/12/21 07:04:30;;;;;;;84.20;60.35;;;9.80;90.40;;;;;;5036805;28;20507;-68
2020/12/21 07:06:57;;;;;;;91.00;66.43;;;9.80;90.50;;;;;;5035781;28;20373;-78
2020/12/21 07:09:28;;;;;;;98.50;72.22;;;9.80;90.50;;;;;;5035971;28;20100;-69
2020/12/21 07:11:56;;;;;;;95.25;68.85;;;9.80;90.50;;;;;;5036139;28;20029;-68
2020/12/21 07:14:23;;;;;;;100.68;72.93;;;9.80;90.60;;;;;;5036020;28;20029;-68
2020/12/21 07:16:50;;;;;;;98.35;72.88;;;9.80;90.60;;;;;;5035646;28;20034;-67
2020/12/21 07:19:15;;;;;;;97.45;68.95;;;9.80;90.60;;;;;;5035174;28;20029;-67
2020/12/21 07:21:41;;;;;;;99.43;71.68;;;9.80;90.60;;;;;;5035797;28;20032;-68
2020/12/21 07:24:10;;;;;;;96.00;67.00;;;9.80;90.60;;;;;;5034373;28;20022;-68
2020/12/21 07:26:39;;;;;;;94.70;67.25;;;9.80;90.50;;;;;;5033733;28;20017;-68
2020/12/21 07:29:05;;;;;;;87.97;64.55;;;9.80;90.50;;;;;;5035681;28;20038;-68
2020/12/21 07:31:32;;;;;;;90.80;63.60;;;9.80;90.50;;;;;;5035666;28;20028;-68
2020/12/21 07:34:00;;;;;;;77.57;56.03;;;9.90;90.50;;;;;;5035821;28;20029;-68
2020/12/21 07:36:28;;;;;;;74.82;54.55;;;9.80;90.50;;;;;;5035224;28;20069;-68
2020/12/21 07:39:17;;;;;;;76.32;52.60;;;9.90;90.50;;;;;;5035781;28;20375;-67
2020/12/21 07:41:48;;;;;;;74.75;51.95;;;9.90;90.50;;;;;;5035663;28;20028;-67
2020/12/21 07:44:44;;;;;;;83.72;59.38;;;9.90;90.40;;;;;;5035192;28;20034;-67
2020/12/21 07:47:19;;;;;;;80.53;59.33;;;9.90;90.40;;;;;;5026533;28;20037;-68
2020/12/21 07:49:45;;;;;;;76.18;53.22;;;9.90;90.40;;;;;;5035262;28;20037;-68
2020/12/21 07:52:14;;;;;;;68.38;51.25;;;9.90;90.40;;;;;;5035447;28;20029;-68
2020/12/21 07:54:42;;;;;;;72.63;50.72;;;9.90;90.50;;;;;;5035473;28;20426;-68
2020/12/21 07:57:10;;;;;;;69.05;46.63;;;9.90;90.60;;;;;;5035209;28;20033;-68
2020/12/21 07:59:35;;;;;;;64.10;45.03;;;9.90;90.60;;;;;;5034370;28;20482;-80
2020/12/21 08:02:07;;;;;;;63.25;42.00;;;9.90;90.70;;;;;;5033655;28;20041;-77
2020/12/21 08:04:33;;;;;;;59.17;38.22;;;9.90;90.60;;;;;;5034000;28;20026;-78
2020/12/21 08:07:09;;;;;;;57.47;39.53;;;9.90;90.50;;;;;;5034600;28;20030;-78
2020/12/21 08:09:38;;;;;;;61.58;41.30;;;9.90;90.50;;;;;;5034443;28;20104;-78
2020/12/21 08:12:14;;;;;;;57.15;39.42;;;9.90;90.50;;;;;;5034669;28;20033;-80
2020/12/21 08:14:41;;;;;;;61.83;41.85;;;10.00;90.40;;;;;;5034286;28;20076;-68
2020/12/21 08:17:14;;;;;;;63.00;41.90;;;10.00;90.40;;;;;;5023385;28;20121;-68
2020/12/21 08:19:56;;;;;;;;;;;10.00;90.40;;;;;;5015142;28;20055;-68
2020/12/21 08:22:23;;;;;;;67.63;43.55;;;10.00;90.30;;;;;;5014490;28;19913;-68
2020/12/21 08:25:09;;;;;;;66.45;42.65;;;10.00;90.20;;;;;;5014354;28;20018;-68
2020/12/21 08:27:36;;;;;;;67.68;44.47;;;10.10;90.20;;;;;;5014438;28;20033;-68
2020/12/21 08:30:10;;;;;;;63.33;43.33;;;10.00;90.20;;;;;;5014416;28;20084;-68
2020/12/21 08:32:36;;;;;;;63.63;44.22;;;10.00;90.20;;;;;;5014577;28;20045;-68
2020/12/21 08:35:02;;;;;;;65.50;43.53;;;10.00;90.20;;;;;;5014191;28;20482;-68
2020/12/21 08:37:28;;;;;;;64.72;42.92;;;10.10;90.20;;;;;;5014066;28;20506;-68
2020/12/21 08:39:54;;;;;;;68.50;44.97;;;10.10;90.20;;;;;;5033518;28;20030;-68
2020/12/21 08:42:20;;;;;;;72.80;46.25;;;10.10;90.20;;;;;;5033261;28;20030;-68
2020/12/21 08:44:50;;;;;;;67.72;45.30;;;10.10;90.10;;;;;;5031790;28;20465;-67
2020/12/21 08:47:15;;;;;;;67.93;45.15;;;10.10;90.00;;;;;;5033239;28;20029;-68
2020/12/21 08:49:41;;;;;;;64.03;42.08;;;10.10;90.00;;;;;;5034284;28;20105;-69
2020/12/21 08:52:07;;;;;;;71.43;43.38;;;10.10;89.80;;;;;;5033672;28;20033;-69
2020/12/21 08:54:32;;;;;;;68.03;42.65;;;10.10;89.70;;;;;;5031662;28;20485;-67
2020/12/21 08:56:58;;;;;;;61.47;41.70;;;10.20;89.70;;;;;;5033068;28;20370;-70
2020/12/21 08:59:25;;;;;;;61.78;40.55;;;10.20;89.70;;;;;;5033510;28;20021;-69
2020/12/21 09:01:51;;;;;;;62.50;38.55;;;10.20;89.60;;;;;;5031120;28;20079;-69
2020/12/21 09:04:16;;;;;;;60.15;38.63;;;10.20;89.60;;;;;;5030914;28;20025;-69
2020/12/21 09:06:42;;;;;;;68.60;37.40;;;10.20;89.40;;;;;;5030817;28;20036;-69
2020/12/21 09:09:09;;;;;;;71.93;39.03;;;10.20;89.30;;;;;;5032448;28;20473;-68
2020/12/21 09:11:35;;;;;;;66.68;36.28;;;10.20;89.30;;;;;;5032959;28;20063;-69
2020/12/21 09:14:01;;;;;;;62.33;36.97;;;10.20;89.40;;;;;;5033301;28;20421;-73
2020/12/21 09:16:28;;;;;;;63.30;35.35;;;10.20;89.70;;;;;;5032650;28;20405;-73
2020/12/21 09:18:56;;;;;;;60.42;35.00;;;10.20;89.60;;;;;;5032277;28;20025;-73
2020/12/21 09:21:27;;;;;;;65.03;35.90;;;10.20;89.50;;;;;;5032769;28;20050;-73
2020/12/21 09:23:56;;;;;;;69.45;37.03;;;10.20;89.60;;;;;;5032206;28;20026;-73
2020/12/21 09:26:22;;;;;;;64.22;36.38;;;10.20;89.50;;;;;;5033410;28;20060;-72
2020/12/21 09:28:51;;;;;;;62.58;36.22;;;10.20;89.70;;;;;;5033682;28;20025;-72
2020/12/21 09:31:17;;;;;;;71.53;37.72;;;10.20;89.60;;;;;;5033251;28;20028;-72
2020/12/21 09:33:44;;;;;;;73.45;40.80;;;10.20;89.40;;;;;;5032953;28;20486;-76
2020/12/21 09:36:10;;;;;;;68.80;39.40;;;10.20;89.30;;;;;;5033140;28;20124;-73
2020/12/21 09:38:37;;;;;;;63.75;41.72;;;10.20;89.50;;;;;;5032983;28;20423;-73
2020/12/21 09:41:04;;;;;;;66.55;42.03;;;10.20;89.40;;;;;;5032212;28;20027;-73
2020/12/21 09:43:29;;;;;;;67.35;41.90;;;10.20;89.60;;;;;;5029660;28;20029;-72
2020/12/21 09:45:55;;;;;;;62.08;41.53;;;10.20;89.90;;;;;;5030324;28;20048;-72
2020/12/21 09:48:21;;;;;;;72.30;45.28;;;10.20;90.00;;;;;;5030703;28;20033;-72
2020/12/21 09:50:48;;;;;;;71.00;45.55;;;10.10;90.30;;;;;;5033001;28;20026;-72
2020/12/21 09:53:13;;;;;;;75.15;48.00;;;10.10;90.40;;;;;;5032845;28;20025;-72
2020/12/21 09:55:39;;;;;;;83.22;50.10;;;10.10;90.60;;;;;;5032865;28;20036;-72
2020/12/21 09:58:08;;;;;;;75.35;49.80;;;10.10;90.80;;;;;;5032811;28;20038;-72
2020/12/21 10:00:33;;;;;;;88.93;52.53;;;10.00;90.80;;;;;;5033148;28;20096;-73
2020/12/21 10:02:59;;;;;;;76.43;49.78;;;10.00;90.90;;;;;;5033226;28;20109;-73
2020/12/21 10:05:25;;;;;;;81.85;52.92;;;10.00;90.90;;;;;;5033002;28;20045;-72
2020/12/21 10:07:50;;;;;;;82.97;54.90;;;9.90;91.10;;;;;;5033123;28;20504;-72
2020/12/21 10:10:16;;;;;;;78.32;51.83;;;10.00;91.20;;;;;;5032857;28;20032;-74
2020/12/21 10:12:42;;;;;;;80.65;52.55;;;9.90;91.10;;;;;;5023172;28;20017;-73
2020/12/21 10:15:08;;;;;;;84.97;53.88;;;10.00;91.20;;;;;;5020879;28;20017;-72
2020/12/21 10:17:33;;;;;;;87.20;54.83;;;10.00;91.20;;;;;;5021729;28;20393;-71
2020/12/21 10:19:59;;;;;;;83.95;56.67;;;10.00;91.20;;;;;;5022419;28;20022;-72
2020/12/21 10:22:25;;;;;;;89.07;57.42;;;10.00;91.20;;;;;;5020858;28;20080;-72
2020/12/21 10:24:50;;;;;;;91.47;57.38;;;10.00;91.20;;;;;;5022479;28;20018;-71
2020/12/21 10:27:16;;;;;;;95.13;58.88;;;10.00;91.40;;;;;;5020650;28;20053;-71
2020/12/21 10:29:42;;;;;;;100.13;58.65;;;10.00;91.50;;;;;;5021335;28;20022;-71
2020/12/21 10:32:08;;;;;;;94.53;58.63;;;10.00;91.50;;;;;;5022257;28;20394;-70
2020/12/21 10:34:34;;;;;;;91.25;57.88;;;10.00;91.60;;;;;;5032746;28;20053;-72
2020/12/21 10:37:00;;;;;;;94.38;58.58;;;10.00;91.60;;;;;;5032386;28;20100;-72
2020/12/21 10:39:26;;;;;;;90.32;58.58;;;10.00;91.70;;;;;;5032538;28;20479;-72
2020/12/21 10:41:52;;;;;;;87.07;55.90;;;10.00;91.70;;;;;;5032941;28;20026;-72
2020/12/21 10:44:18;;;;;;;85.13;55.38;;;10.00;91.60;;;;;;5032844;28;20026;-72
2020/12/21 10:46:44;;;;;;;88.63;56.00;;;10.10;91.50;;;;;;5032797;28;20504;-73
2020/12/21 10:49:10;;;;;;;87.60;52.72;;;10.10;91.50;;;;;;5032839;28;20017;-72
2020/12/21 10:51:36;;;;;;;86.95;56.10;;;10.10;91.40;;;;;;5032764;28;20377;-72
2020/12/21 10:54:02;;;;;;;85.13;55.80;;;10.10;91.40;;;;;;5032615;28;20017;-72
2020/12/21 10:56:28;;;;;;;86.03;55.73;;;10.10;91.40;;;;;;5032329;28;20034;-71
2020/12/21 10:58:57;;;;;;;91.47;56.78;;;10.10;91.30;;;;;;5026769;28;20025;-72
2020/12/21 11:01:23;;;;;;;75.75;50.92;;;10.10;91.30;;;;;;5022241;28;20413;-72
2020/12/21 11:03:49;;;;;;;82.45;52.88;;;10.20;91.20;;;;;;5020304;28;20083;-72
2020/12/21 11:06:23;;;;;;;87.10;54.50;;;10.20;91.10;;;;;;5021028;28;20068;-72
2020/12/21 11:08:50;;;;;;;77.43;51.17;;;10.20;91.10;;;;;;5022194;28;20033;-72
2020/12/21 11:11:26;;;;;;;88.22;54.10;;;10.20;91.00;;;;;;5021582;28;20033;-72
2020/12/21 11:13:53;;;;;;;79.68;53.72;;;10.20;90.90;;;;;;5022046;28;20080;-72
2020/12/21 11:16:18;;;;;;;89.40;54.38;;;10.20;90.80;;;;;;5021719;28;20462;-72
2020/12/21 11:18:44;;;;;;;86.00;54.38;;;10.20;90.80;;;;;;5022581;28;20071;-73
2020/12/21 11:21:10;;;;;;;92.82;54.95;;;10.20;90.90;;;;;;5024863;28;20040;-72
2020/12/21 11:23:35;;;;;;;87.57;53.95;;;10.20;90.90;;;;;;5027124;28;20470;-72
2020/12/21 11:26:01;;;;;;;83.07;52.65;;;10.30;90.90;;;;;;5022644;28;20087;-74
2020/12/21 11:28:26;;;;;;;87.03;54.75;;;10.20;90.80;;;;;;5025397;28;20017;-72
2020/12/21 11:30:52;;;;;;;88.57;56.28;;;10.30;91.00;;;;;;5023406;28;20079;-74
2020/12/21 11:33:18;;;;;;;99.35;61.30;;;10.30;90.90;;;;;;5024235;28;20028;-73
2020/12/21 11:35:44;;;;;;;98.47;59.58;;;10.30;90.70;;;;;;5024574;28;20041;-73
2020/12/21 11:38:09;;;;;;;93.15;57.13;;;10.30;90.70;;;;;;5034897;28;20033;-73
2020/12/21 11:40:35;;;;;;;83.47;51.67;;;10.30;90.80;;;;;;5034165;28;20017;-74
2020/12/21 11:43:01;;;;;;;76.00;49.65;;;10.30;90.70;;;;;;5018650;28;20054;-72
2020/12/21 11:45:26;;;;;;;81.80;51.80;;;10.30;90.80;;;;;;5013628;28;20014;-73
2020/12/21 11:47:52;;;;;;;77.65;50.35;;;10.30;90.80;;;;;;5014387;28;20529;-72
2020/12/21 11:50:18;;;;;;;81.45;51.53;;;10.40;90.90;;;;;;5015220;28;20026;-73
2020/12/21 11:52:44;;;;;;;77.40;47.22;;;10.40;90.80;;;;;;5015259;28;20097;-73
2020/12/21 11:55:10;;;;;;;80.43;50.15;;;10.40;90.80;;;;;;5015526;28;20018;-73
2020/12/21 11:57:36;;;;;;;81.25;47.58;;;10.40;90.90;;;;;;5015296;28;20033;-72
2020/12/21 12:00:01;;;;;;;73.60;46.58;;;10.40;91.00;;;;;;5015511;28;20022;-72
2020/12/21 12:02:27;;;;;;;79.20;47.90;;;10.40;91.00;;;;;;5015751;28;20106;-72
2020/12/21 12:04:53;;;;;;;70.10;43.65;;;10.40;91.10;;;;;;5015434;28;20026;-73
2020/12/21 12:07:18;;;;;;;85.82;50.88;;;10.40;91.10;;;;;;5015251;28;20088;-72
2020/12/21 12:09:44;;;;;;;73.82;44.88;;;10.30;91.10;;;;;;5015249;28;20026;-72
2020/12/21 12:12:10;;;;;;;89.05;51.42;;;10.30;91.00;;;;;;5015457;28;20041;-72
2020/12/21 12:14:35;;;;;;;83.40;49.58;;;10.40;91.00;;;;;;5015301;28;20050;-72
2020/12/21 12:17:02;;;;;;;81.28;49.15;;;10.40;91.00;;;;;;5015051;28;20041;-72
2020/12/21 12:19:28;;;;;;;83.78;49.67;;;10.40;91.00;;;;;;5015176;28;20037;-72
2020/12/21 12:21:54;;;;;;;84.57;51.92;;;10.30;91.20;;;;;;5017165;28;20025;-71
2020/12/21 12:24:20;;;;;;;79.80;49.40;;;10.30;91.40;;;;;;5022527;28;20110;-73
2020/12/21 12:26:47;;;;;;;74.32;47.08;;;10.30;91.40;;;;;;5023940;28;20033;-73
2020/12/21 12:29:13;;;;;;;86.97;50.08;;;10.30;91.60;;;;;;5021921;28;20014;-73
2020/12/21 12:31:38;;;;;;;74.30;46.22;;;10.30;91.20;;;;;;5022447;28;20087;-74
2020/12/21 12:34:04;;;;;;;79.15;48.58;;;10.30;91.20;;;;;;5024388;28;20026;-73